sensor_id;sensor_type;location;lat;lon;timestamp;P1;durP1;ratioP1;P2;durP2;ratioP2
9689;SDS011;4884;42.614;23.340;2023-01-24T00:00:00;8.03;;;5.87;;
9689;SDS011;4884;42.614;23.340;2023-01-24T00:02:26;9.33;;;5.57;;
9689;SDS011;4884;42.614;23.340;2023-01-24T00:04:51;9.63;;;5.60;;
9689;SDS011;4884;42.614;23.340;2023-01-24T00:07:16;10.67;;;6.27;;
9689;SDS011;4884;42.614;23.340;2023-01-24T00:09:42;11.63;;;6.77;;
9689;SDS011;4884;42.614;23.340;2023-01-24T00:12:07;9.90;;;6.03;;
9689;SDS011;4884;42.614;23.340;2023-01-24T00:14:32;8.37;;;6.03;;
9689;SDS011;4884;42.614;23.340;2023-01-24T00:16:58;9.30;;;6.83;;
9689;SDS011;4884;42.614;23.340;2023-01-24T00:19:23;9.60;;;7.13;;
9689;SDS011;4884;42.614;23.340;2023-01-24T00:21:48;8.67;;;6.10;;
9689;SDS011;4884;42.614;23.340;2023-01-24T00:24:14;10.47;;;6.47;;
9689;SDS011;4884;42.614;23.340;2023-01-24T00:26:39;8.47;;;6.10;;
9689;SDS011;4884;42.614;23.340;2023-01-24T00:29:04;10.70;;;7.07;;
9689;SDS011;4884;42.614;23.340;2023-01-24T00:31:30;8.33;;;6.13;;
9689;SDS011;4884;42.614;23.340;2023-01-24T00:33:55;9.83;;;6.40;;
9689;SDS011;4884;42.614;23.340;2023-01-24T00:36:20;10.60;;;6.03;;
9689;SDS011;4884;42.614;23.340;2023-01-24T00:38:46;9.70;;;6.33;;
9689;SDS011;4884;42.614;23.340;2023-01-24T00:41:11;10.00;;;5.97;;
9689;SDS011;4884;42.614;23.340;2023-01-24T00:43:37;10.90;;;6.47;;
9689;SDS011;4884;42.614;23.340;2023-01-24T00:46:04;10.37;;;6.63;;
9689;SDS011;4884;42.614;23.340;2023-01-24T00:48:31;11.23;;;6.00;;
9689;SDS011;4884;42.614;23.340;2023-01-24T00:50:56;15.93;;;7.30;;
9689;SDS011;4884;42.614;23.340;2023-01-24T00:53:22;13.10;;;7.07;;
9689;SDS011;4884;42.614;23.340;2023-01-24T00:55:47;8.67;;;5.87;;
9689;SDS011;4884;42.614;23.340;2023-01-24T00:58:13;11.13;;;6.00;;
9689;SDS011;4884;42.614;23.340;2023-01-24T01:00:39;14.63;;;6.53;;
9689;SDS011;4884;42.614;23.340;2023-01-24T01:03:06;12.10;;;6.73;;
9689;SDS011;4884;42.614;23.340;2023-01-24T01:05:32;14.57;;;6.77;;
9689;SDS011;4884;42.614;23.340;2023-01-24T01:07:57;11.70;;;6.43;;
9689;SDS011;4884;42.614;23.340;2023-01-24T01:10:22;12.43;;;7.17;;
9689;SDS011;4884;42.614;23.340;2023-01-24T01:12:48;11.23;;;6.50;;
9689;SDS011;4884;42.614;23.340;2023-01-24T01:15:13;10.33;;;7.17;;
9689;SDS011;4884;42.614;23.340;2023-01-24T01:17:38;13.33;;;7.30;;
9689;SDS011;4884;42.614;23.340;2023-01-24T01:20:04;11.13;;;7.33;;
9689;SDS011;4884;42.614;23.340;2023-01-24T01:22:30;11.93;;;6.73;;
9689;SDS011;4884;42.614;23.340;2023-01-24T01:24:55;11.70;;;7.63;;
9689;SDS011;4884;42.614;23.340;2023-01-24T01:27:20;9.67;;;6.90;;
9689;SDS011;4884;42.614;23.340;2023-01-24T01:29:46;14.37;;;8.10;;
9689;SDS011;4884;42.614;23.340;2023-01-24T01:32:11;10.20;;;6.57;;
9689;SDS011;4884;42.614;23.340;2023-01-24T01:34:36;14.47;;;7.90;;
9689;SDS011;4884;42.614;23.340;2023-01-24T01:37:02;15.03;;;7.10;;
9689;SDS011;4884;42.614;23.340;2023-01-24T01:39:27;12.23;;;6.93;;
9689;SDS011;4884;42.614;23.340;2023-01-24T01:41:53;13.03;;;7.30;;
9689;SDS011;4884;42.614;23.340;2023-01-24T01:44:23;12.07;;;7.63;;
9689;SDS011;4884;42.614;23.340;2023-01-24T01:49:58;10.77;;;6.70;;
9689;SDS011;4884;42.614;23.340;2023-01-24T01:52:24;9.13;;;7.17;;
9689;SDS011;4884;42.614;23.340;2023-01-24T01:54:51;11.60;;;7.60;;
9689;SDS011;4884;42.614;23.340;2023-01-24T01:57:23;13.27;;;7.83;;
9689;SDS011;4884;42.614;23.340;2023-01-24T01:59:54;11.47;;;6.83;;
9689;SDS011;4884;42.614;23.340;2023-01-24T02:02:22;12.37;;;6.90;;
9689;SDS011;4884;42.614;23.340;2023-01-24T02:04:49;12.67;;;7.23;;
9689;SDS011;4884;42.614;23.340;2023-01-24T02:07:29;13.63;;;7.67;;
9689;SDS011;4884;42.614;23.340;2023-01-24T02:10:04;9.87;;;7.33;;
9689;SDS011;4884;42.614;23.340;2023-01-24T02:12:36;13.00;;;7.83;;
9689;SDS011;4884;42.614;23.340;2023-01-24T02:15:05;10.63;;;6.57;;
9689;SDS011;4884;42.614;23.340;2023-01-24T02:17:57;12.87;;;7.13;;
9689;SDS011;4884;42.614;23.340;2023-01-24T02:23:10;10.33;;;6.20;;
9689;SDS011;4884;42.614;23.340;2023-01-24T02:28:06;11.83;;;6.83;;
9689;SDS011;4884;42.614;23.340;2023-01-24T02:30:32;10.93;;;7.10;;
9689;SDS011;4884;42.614;23.340;2023-01-24T02:32:57;10.50;;;6.43;;
9689;SDS011;4884;42.614;23.340;2023-01-24T02:35:27;10.23;;;6.90;;
9689;SDS011;4884;42.614;23.340;2023-01-24T02:37:55;14.80;;;7.37;;
9689;SDS011;4884;42.614;23.340;2023-01-24T02:40:23;12.67;;;6.50;;
9689;SDS011;4884;42.614;23.340;2023-01-24T02:42:49;14.70;;;6.93;;
9689;SDS011;4884;42.614;23.340;2023-01-24T02:45:16;10.50;;;7.03;;
9689;SDS011;4884;42.614;23.340;2023-01-24T02:47:49;11.17;;;6.63;;
9689;SDS011;4884;42.614;23.340;2023-01-24T02:50:16;12.27;;;7.20;;
9689;SDS011;4884;42.614;23.340;2023-01-24T02:52:42;9.73;;;6.67;;
9689;SDS011;4884;42.614;23.340;2023-01-24T02:55:26;9.10;;;6.50;;
9689;SDS011;4884;42.614;23.340;2023-01-24T02:57:51;12.33;;;6.87;;
9689;SDS011;4884;42.614;23.340;2023-01-24T03:00:35;13.73;;;6.97;;
9689;SDS011;4884;42.614;23.340;2023-01-24T03:03:05;9.30;;;6.67;;
9689;SDS011;4884;42.614;23.340;2023-01-24T03:05:32;10.03;;;6.33;;
9689;SDS011;4884;42.614;23.340;2023-01-24T03:08:16;10.97;;;6.43;;
9689;SDS011;4884;42.614;23.340;2023-01-24T03:10:41;9.77;;;6.10;;
9689;SDS011;4884;42.614;23.340;2023-01-24T03:13:07;9.53;;;5.80;;
9689;SDS011;4884;42.614;23.340;2023-01-24T03:15:50;8.67;;;5.70;;
9689;SDS011;4884;42.614;23.340;2023-01-24T03:18:34;9.53;;;5.50;;
9689;SDS011;4884;42.614;23.340;2023-01-24T03:21:18;7.87;;;5.40;;
9689;SDS011;4884;42.614;23.340;2023-01-24T03:24:02;9.80;;;5.43;;
9689;SDS011;4884;42.614;23.340;2023-01-24T03:26:46;10.47;;;5.00;;
9689;SDS011;4884;42.614;23.340;2023-01-24T03:29:30;6.77;;;4.83;;
9689;SDS011;4884;42.614;23.340;2023-01-24T03:32:13;8.00;;;5.07;;
9689;SDS011;4884;42.614;23.340;2023-01-24T03:34:57;8.10;;;5.50;;
9689;SDS011;4884;42.614;23.340;2023-01-24T03:37:23;7.93;;;5.83;;
9689;SDS011;4884;42.614;23.340;2023-01-24T03:40:09;8.93;;;6.20;;
9689;SDS011;4884;42.614;23.340;2023-01-24T03:42:36;7.60;;;5.60;;
9689;SDS011;4884;42.614;23.340;2023-01-24T03:45:12;6.47;;;5.20;;
9689;SDS011;4884;42.614;23.340;2023-01-24T03:47:52;7.13;;;4.93;;
9689;SDS011;4884;42.614;23.340;2023-01-24T03:50:34;6.47;;;4.77;;
9689;SDS011;4884;42.614;23.340;2023-01-24T03:53:19;6.93;;;6.17;;
9689;SDS011;4884;42.614;23.340;2023-01-24T03:55:45;7.53;;;5.33;;
9689;SDS011;4884;42.614;23.340;2023-01-24T03:58:12;6.27;;;5.47;;
9689;SDS011;4884;42.614;23.340;2023-01-24T04:00:37;9.77;;;5.27;;
9689;SDS011;4884;42.614;23.340;2023-01-24T04:03:04;7.33;;;5.27;;
9689;SDS011;4884;42.614;23.340;2023-01-24T04:05:29;7.03;;;5.70;;
9689;SDS011;4884;42.614;23.340;2023-01-24T04:07:55;5.17;;;4.63;;
9689;SDS011;4884;42.614;23.340;2023-01-24T04:10:20;7.27;;;5.70;;
9689;SDS011;4884;42.614;23.340;2023-01-24T04:12:46;7.10;;;5.57;;
9689;SDS011;4884;42.614;23.340;2023-01-24T04:15:31;7.17;;;5.63;;
9689;SDS011;4884;42.614;23.340;2023-01-24T04:17:57;8.17;;;5.87;;
9689;SDS011;4884;42.614;23.340;2023-01-24T04:20:25;7.43;;;5.87;;
9689;SDS011;4884;42.614;23.340;2023-01-24T04:22:52;7.30;;;5.73;;
9689;SDS011;4884;42.614;23.340;2023-01-24T04:25:17;6.30;;;5.07;;
9689;SDS011;4884;42.614;23.340;2023-01-24T04:27:43;8.03;;;5.30;;
9689;SDS011;4884;42.614;23.340;2023-01-24T04:30:09;7.43;;;6.13;;
9689;SDS011;4884;42.614;23.340;2023-01-24T04:32:36;7.40;;;5.83;;
9689;SDS011;4884;42.614;23.340;2023-01-24T04:35:02;8.10;;;5.77;;
9689;SDS011;4884;42.614;23.340;2023-01-24T04:37:28;9.93;;;6.83;;
9689;SDS011;4884;42.614;23.340;2023-01-24T04:39:54;8.07;;;6.53;;
9689;SDS011;4884;42.614;23.340;2023-01-24T04:42:19;6.37;;;5.77;;
9689;SDS011;4884;42.614;23.340;2023-01-24T04:44:45;7.50;;;6.40;;
9689;SDS011;4884;42.614;23.340;2023-01-24T04:47:10;7.90;;;5.53;;
9689;SDS011;4884;42.614;23.340;2023-01-24T04:49:35;6.13;;;5.53;;
9689;SDS011;4884;42.614;23.340;2023-01-24T04:52:01;8.63;;;5.90;;
9689;SDS011;4884;42.614;23.340;2023-01-24T04:54:26;9.20;;;6.77;;
9689;SDS011;4884;42.614;23.340;2023-01-24T04:56:51;9.60;;;5.87;;
9689;SDS011;4884;42.614;23.340;2023-01-24T04:59:17;10.53;;;7.00;;
9689;SDS011;4884;42.614;23.340;2023-01-24T05:01:42;7.93;;;6.50;;
9689;SDS011;4884;42.614;23.340;2023-01-24T05:04:08;7.53;;;6.20;;
9689;SDS011;4884;42.614;23.340;2023-01-24T05:06:33;7.80;;;5.53;;
9689;SDS011;4884;42.614;23.340;2023-01-24T05:08:59;7.77;;;6.97;;
9689;SDS011;4884;42.614;23.340;2023-01-24T05:11:24;8.03;;;6.33;;
9689;SDS011;4884;42.614;23.340;2023-01-24T05:13:50;7.70;;;5.20;;
9689;SDS011;4884;42.614;23.340;2023-01-24T05:16:16;8.23;;;5.40;;
9689;SDS011;4884;42.614;23.340;2023-01-24T05:18:41;8.67;;;6.73;;
9689;SDS011;4884;42.614;23.340;2023-01-24T05:21:08;6.73;;;5.53;;
9689;SDS011;4884;42.614;23.340;2023-01-24T05:23:36;10.90;;;6.47;;
9689;SDS011;4884;42.614;23.340;2023-01-24T05:26:01;8.03;;;6.03;;
9689;SDS011;4884;42.614;23.340;2023-01-24T05:28:28;8.10;;;5.93;;
9689;SDS011;4884;42.614;23.340;2023-01-24T05:30:57;8.27;;;5.43;;
9689;SDS011;4884;42.614;23.340;2023-01-24T05:33:24;7.37;;;5.90;;
9689;SDS011;4884;42.614;23.340;2023-01-24T05:35:55;32.27;;;16.73;;
9689;SDS011;4884;42.614;23.340;2023-01-24T05:38:24;8.13;;;6.60;;
9689;SDS011;4884;42.614;23.340;2023-01-24T05:40:49;6.83;;;6.13;;
9689;SDS011;4884;42.614;23.340;2023-01-24T05:43:15;8.20;;;6.03;;
9689;SDS011;4884;42.614;23.340;2023-01-24T05:45:40;7.63;;;6.50;;
9689;SDS011;4884;42.614;23.340;2023-01-24T05:48:06;7.70;;;6.53;;
9689;SDS011;4884;42.614;23.340;2023-01-24T05:50:31;9.63;;;6.10;;
9689;SDS011;4884;42.614;23.340;2023-01-24T05:52:56;10.07;;;6.20;;
9689;SDS011;4884;42.614;23.340;2023-01-24T05:55:22;7.07;;;6.37;;
9689;SDS011;4884;42.614;23.340;2023-01-24T05:57:47;7.03;;;5.70;;
9689;SDS011;4884;42.614;23.340;2023-01-24T06:00:12;8.43;;;5.97;;
9689;SDS011;4884;42.614;23.340;2023-01-24T06:02:38;9.93;;;6.87;;
9689;SDS011;4884;42.614;23.340;2023-01-24T06:05:04;7.70;;;6.27;;
9689;SDS011;4884;42.614;23.340;2023-01-24T06:07:29;6.90;;;5.80;;
9689;SDS011;4884;42.614;23.340;2023-01-24T06:09:55;6.73;;;5.27;;
9689;SDS011;4884;42.614;23.340;2023-01-24T06:12:20;7.80;;;5.83;;
9689;SDS011;4884;42.614;23.340;2023-01-24T06:14:45;8.00;;;5.73;;
9689;SDS011;4884;42.614;23.340;2023-01-24T06:17:11;9.20;;;6.73;;
9689;SDS011;4884;42.614;23.340;2023-01-24T06:19:36;7.10;;;5.70;;
9689;SDS011;4884;42.614;23.340;2023-01-24T06:24:56;7.87;;;5.83;;
9689;SDS011;4884;42.614;23.340;2023-01-24T06:27:22;8.27;;;6.27;;
9689;SDS011;4884;42.614;23.340;2023-01-24T06:29:48;8.67;;;6.57;;
9689;SDS011;4884;42.614;23.340;2023-01-24T06:35:09;7.23;;;6.17;;
9689;SDS011;4884;42.614;23.340;2023-01-24T06:40:10;7.73;;;5.23;;
9689;SDS011;4884;42.614;23.340;2023-01-24T06:42:37;6.90;;;6.20;;
9689;SDS011;4884;42.614;23.340;2023-01-24T06:45:03;8.17;;;6.33;;
9689;SDS011;4884;42.614;23.340;2023-01-24T06:47:29;7.90;;;6.40;;
9689;SDS011;4884;42.614;23.340;2023-01-24T06:49:54;6.10;;;5.50;;
9689;SDS011;4884;42.614;23.340;2023-01-24T06:52:20;7.17;;;6.10;;
9689;SDS011;4884;42.614;23.340;2023-01-24T06:54:45;10.60;;;7.30;;
9689;SDS011;4884;42.614;23.340;2023-01-24T06:57:11;11.00;;;6.17;;
9689;SDS011;4884;42.614;23.340;2023-01-24T06:59:36;14.43;;;7.27;;
9689;SDS011;4884;42.614;23.340;2023-01-24T07:02:01;9.73;;;8.33;;
9689;SDS011;4884;42.614;23.340;2023-01-24T07:04:27;9.67;;;7.33;;
9689;SDS011;4884;42.614;23.340;2023-01-24T07:06:52;11.33;;;7.70;;
9689;SDS011;4884;42.614;23.340;2023-01-24T07:09:19;8.60;;;7.17;;
9689;SDS011;4884;42.614;23.340;2023-01-24T07:11:45;10.93;;;7.07;;
9689;SDS011;4884;42.614;23.340;2023-01-24T07:14:14;9.33;;;6.63;;
9689;SDS011;4884;42.614;23.340;2023-01-24T07:16:40;9.30;;;6.83;;
9689;SDS011;4884;42.614;23.340;2023-01-24T07:19:05;8.27;;;6.00;;
9689;SDS011;4884;42.614;23.340;2023-01-24T07:21:39;8.63;;;6.37;;
9689;SDS011;4884;42.614;23.340;2023-01-24T07:24:07;8.50;;;6.57;;
9689;SDS011;4884;42.614;23.340;2023-01-24T07:26:37;11.13;;;7.13;;
9689;SDS011;4884;42.614;23.340;2023-01-24T07:29:02;9.40;;;6.70;;
9689;SDS011;4884;42.614;23.340;2023-01-24T07:31:28;9.10;;;6.63;;
9689;SDS011;4884;42.614;23.340;2023-01-24T07:33:53;11.20;;;8.07;;
9689;SDS011;4884;42.614;23.340;2023-01-24T07:36:18;11.73;;;8.23;;
9689;SDS011;4884;42.614;23.340;2023-01-24T07:38:44;10.40;;;7.80;;
9689;SDS011;4884;42.614;23.340;2023-01-24T07:41:09;9.93;;;7.27;;
9689;SDS011;4884;42.614;23.340;2023-01-24T07:43:35;11.00;;;7.57;;
9689;SDS011;4884;42.614;23.340;2023-01-24T07:46:00;7.43;;;6.13;;
9689;SDS011;4884;42.614;23.340;2023-01-24T07:48:26;7.67;;;6.80;;
9689;SDS011;4884;42.614;23.340;2023-01-24T07:50:51;8.43;;;6.67;;
9689;SDS011;4884;42.614;23.340;2023-01-24T07:53:17;10.20;;;7.07;;
9689;SDS011;4884;42.614;23.340;2023-01-24T07:55:42;8.50;;;6.40;;
9689;SDS011;4884;42.614;23.340;2023-01-24T07:58:07;10.80;;;7.13;;
9689;SDS011;4884;42.614;23.340;2023-01-24T08:00:33;10.10;;;8.07;;
9689;SDS011;4884;42.614;23.340;2023-01-24T08:02:58;11.10;;;8.53;;
9689;SDS011;4884;42.614;23.340;2023-01-24T08:05:23;12.03;;;9.07;;
9689;SDS011;4884;42.614;23.340;2023-01-24T08:07:49;14.07;;;9.47;;
9689;SDS011;4884;42.614;23.340;2023-01-24T08:10:14;11.10;;;9.53;;
9689;SDS011;4884;42.614;23.340;2023-01-24T08:12:40;15.90;;;10.27;;
9689;SDS011;4884;42.614;23.340;2023-01-24T08:15:05;13.13;;;9.33;;
9689;SDS011;4884;42.614;23.340;2023-01-24T08:17:31;14.03;;;9.87;;
9689;SDS011;4884;42.614;23.340;2023-01-24T08:19:57;11.40;;;8.97;;
9689;SDS011;4884;42.614;23.340;2023-01-24T08:22:23;17.03;;;10.37;;
9689;SDS011;4884;42.614;23.340;2023-01-24T08:24:49;12.13;;;9.20;;
9689;SDS011;4884;42.614;23.340;2023-01-24T08:27:14;15.17;;;10.43;;
9689;SDS011;4884;42.614;23.340;2023-01-24T08:29:40;13.07;;;10.13;;
9689;SDS011;4884;42.614;23.340;2023-01-24T08:32:05;13.30;;;8.60;;
9689;SDS011;4884;42.614;23.340;2023-01-24T08:34:31;10.10;;;8.20;;
9689;SDS011;4884;42.614;23.340;2023-01-24T08:36:56;10.87;;;8.20;;
9689;SDS011;4884;42.614;23.340;2023-01-24T08:39:21;11.67;;;8.77;;
9689;SDS011;4884;42.614;23.340;2023-01-24T08:41:46;12.53;;;8.43;;
9689;SDS011;4884;42.614;23.340;2023-01-24T08:44:12;10.73;;;8.47;;
9689;SDS011;4884;42.614;23.340;2023-01-24T08:46:38;11.07;;;8.20;;
9689;SDS011;4884;42.614;23.340;2023-01-24T08:49:04;13.43;;;8.50;;
9689;SDS011;4884;42.614;23.340;2023-01-24T08:51:29;10.90;;;8.77;;
9689;SDS011;4884;42.614;23.340;2023-01-24T08:53:54;12.90;;;8.97;;
9689;SDS011;4884;42.614;23.340;2023-01-24T08:56:20;12.60;;;9.47;;
9689;SDS011;4884;42.614;23.340;2023-01-24T08:58:45;12.83;;;9.10;;
9689;SDS011;4884;42.614;23.340;2023-01-24T09:01:11;12.53;;;9.43;;
9689;SDS011;4884;42.614;23.340;2023-01-24T09:03:36;11.53;;;7.97;;
9689;SDS011;4884;42.614;23.340;2023-01-24T09:06:02;15.50;;;9.70;;
9689;SDS011;4884;42.614;23.340;2023-01-24T09:08:28;10.93;;;7.83;;
9689;SDS011;4884;42.614;23.340;2023-01-24T09:10:53;11.23;;;9.13;;
9689;SDS011;4884;42.614;23.340;2023-01-24T09:13:19;12.50;;;9.50;;
9689;SDS011;4884;42.614;23.340;2023-01-24T09:15:44;12.20;;;9.37;;
9689;SDS011;4884;42.614;23.340;2023-01-24T09:18:09;13.37;;;8.97;;
9689;SDS011;4884;42.614;23.340;2023-01-24T09:20:35;11.47;;;8.90;;
9689;SDS011;4884;42.614;23.340;2023-01-24T09:23:07;12.27;;;9.07;;
9689;SDS011;4884;42.614;23.340;2023-01-24T09:25:33;9.77;;;7.73;;
9689;SDS011;4884;42.614;23.340;2023-01-24T09:27:59;10.27;;;8.13;;
9689;SDS011;4884;42.614;23.340;2023-01-24T09:30:24;11.23;;;9.00;;
9689;SDS011;4884;42.614;23.340;2023-01-24T09:32:49;14.70;;;8.17;;
9689;SDS011;4884;42.614;23.340;2023-01-24T09:35:15;10.23;;;7.97;;
9689;SDS011;4884;42.614;23.340;2023-01-24T09:37:40;11.73;;;7.43;;
9689;SDS011;4884;42.614;23.340;2023-01-24T09:40:27;11.03;;;7.23;;
9689;SDS011;4884;42.614;23.340;2023-01-24T09:45:34;12.37;;;7.23;;
9689;SDS011;4884;42.614;23.340;2023-01-24T09:48:02;13.70;;;7.83;;
9689;SDS011;4884;42.614;23.340;2023-01-24T09:53:33;14.13;;;8.10;;
9689;SDS011;4884;42.614;23.340;2023-01-24T09:55:58;11.97;;;8.70;;
9689;SDS011;4884;42.614;23.340;2023-01-24T09:58:25;33.40;;;10.90;;
9689;SDS011;4884;42.614;23.340;2023-01-24T10:01:04;32.57;;;9.97;;
9689;SDS011;4884;42.614;23.340;2023-01-24T10:03:30;32.93;;;9.17;;
9689;SDS011;4884;42.614;23.340;2023-01-24T10:05:58;134.53;;;14.83;;
9689;SDS011;4884;42.614;23.340;2023-01-24T10:11:18;28.30;;;8.30;;
9689;SDS011;4884;42.614;23.340;2023-01-24T10:13:48;48.73;;;10.47;;
9689;SDS011;4884;42.614;23.340;2023-01-24T10:16:39;13.50;;;8.03;;
9689;SDS011;4884;42.614;23.340;2023-01-24T10:21:49;9.10;;;6.27;;
9689;SDS011;4884;42.614;23.340;2023-01-24T10:24:24;9.07;;;7.23;;
9689;SDS011;4884;42.614;23.340;2023-01-24T10:26:51;27.70;;;9.57;;
9689;SDS011;4884;42.614;23.340;2023-01-24T10:29:22;68.60;;;13.20;;
9689;SDS011;4884;42.614;23.340;2023-01-24T10:34:31;8.40;;;6.37;;
9689;SDS011;4884;42.614;23.340;2023-01-24T10:39:36;224.53;;;22.40;;
9689;SDS011;4884;42.614;23.340;2023-01-24T10:42:02;25.90;;;9.90;;
9689;SDS011;4884;42.614;23.340;2023-01-24T10:50:16;127.23;;;19.50;;
9689;SDS011;4884;42.614;23.340;2023-01-24T10:52:43;115.17;;;17.53;;
9689;SDS011;4884;42.614;23.340;2023-01-24T10:57:59;11.20;;;7.10;;
9689;SDS011;4884;42.614;23.340;2023-01-24T11:00:28;9.50;;;7.73;;
9689;SDS011;4884;42.614;23.340;2023-01-24T11:03:02;8.80;;;6.23;;
9689;SDS011;4884;42.614;23.340;2023-01-24T11:08:32;8.83;;;5.70;;
9689;SDS011;4884;42.614;23.340;2023-01-24T11:11:02;8.43;;;5.67;;
9689;SDS011;4884;42.614;23.340;2023-01-24T11:13:30;7.13;;;5.77;;
9689;SDS011;4884;42.614;23.340;2023-01-24T11:16:00;7.73;;;4.83;;
9689;SDS011;4884;42.614;23.340;2023-01-24T11:18:28;8.53;;;5.07;;
9689;SDS011;4884;42.614;23.340;2023-01-24T11:26:31;7.97;;;5.53;;
9689;SDS011;4884;42.614;23.340;2023-01-24T11:29:00;6.53;;;5.73;;
9689;SDS011;4884;42.614;23.340;2023-01-24T11:31:37;7.27;;;5.80;;
9689;SDS011;4884;42.614;23.340;2023-01-24T11:42:55;6.10;;;5.47;;
9689;SDS011;4884;42.614;23.340;2023-01-24T11:48:20;8.37;;;6.07;;
9689;SDS011;4884;42.614;23.340;2023-01-24T11:51:03;6.30;;;4.67;;
9689;SDS011;4884;42.614;23.340;2023-01-24T11:56:14;7.70;;;5.77;;
9689;SDS011;4884;42.614;23.340;2023-01-24T12:11:44;10.03;;;8.70;;
9689;SDS011;4884;42.614;23.340;2023-01-24T12:14:22;10.40;;;6.83;;
9689;SDS011;4884;42.614;23.340;2023-01-24T12:22:21;63.97;;;12.30;;
9689;SDS011;4884;42.614;23.340;2023-01-24T12:24:51;17.70;;;6.90;;
9689;SDS011;4884;42.614;23.340;2023-01-24T12:27:30;89.97;;;11.93;;
9689;SDS011;4884;42.614;23.340;2023-01-24T12:29:59;17.23;;;5.47;;
9689;SDS011;4884;42.614;23.340;2023-01-24T12:35:46;21.50;;;7.50;;
9689;SDS011;4884;42.614;23.340;2023-01-24T12:38:26;44.90;;;9.03;;
9689;SDS011;4884;42.614;23.340;2023-01-24T12:41:06;19.07;;;6.67;;
9689;SDS011;4884;42.614;23.340;2023-01-24T12:46:39;10.77;;;6.20;;
9689;SDS011;4884;42.614;23.340;2023-01-24T12:49:14;7.93;;;5.47;;
9689;SDS011;4884;42.614;23.340;2023-01-24T12:51:47;7.47;;;5.83;;
9689;SDS011;4884;42.614;23.340;2023-01-24T12:54:19;72.00;;;11.87;;
9689;SDS011;4884;42.614;23.340;2023-01-24T12:56:59;20.70;;;7.73;;
9689;SDS011;4884;42.614;23.340;2023-01-24T12:59:29;36.60;;;8.93;;
9689;SDS011;4884;42.614;23.340;2023-01-24T13:11:08;8.17;;;5.10;;
9689;SDS011;4884;42.614;23.340;2023-01-24T13:13:34;7.33;;;5.40;;
9689;SDS011;4884;42.614;23.340;2023-01-24T13:19:00;8.20;;;5.87;;
9689;SDS011;4884;42.614;23.340;2023-01-24T13:24:23;7.87;;;5.90;;
9689;SDS011;4884;42.614;23.340;2023-01-24T13:27:19;11.73;;;7.33;;
9689;SDS011;4884;42.614;23.340;2023-01-24T13:32:48;8.03;;;7.10;;
9689;SDS011;4884;42.614;23.340;2023-01-24T13:35:16;11.10;;;8.20;;
9689;SDS011;4884;42.614;23.340;2023-01-24T13:37:48;6.17;;;5.17;;
9689;SDS011;4884;42.614;23.340;2023-01-24T13:40:19;8.30;;;5.70;;
9689;SDS011;4884;42.614;23.340;2023-01-24T13:42:48;78.83;;;41.90;;
9689;SDS011;4884;42.614;23.340;2023-01-24T13:47:48;8.10;;;6.10;;
9689;SDS011;4884;42.614;23.340;2023-01-24T13:50:15;6.60;;;5.67;;
9689;SDS011;4884;42.614;23.340;2023-01-24T13:52:45;7.50;;;5.43;;
9689;SDS011;4884;42.614;23.340;2023-01-24T13:57:48;6.80;;;5.70;;
9689;SDS011;4884;42.614;23.340;2023-01-24T14:00:47;7.03;;;5.87;;
9689;SDS011;4884;42.614;23.340;2023-01-24T14:03:31;8.53;;;6.67;;
9689;SDS011;4884;42.614;23.340;2023-01-24T14:25:02;8.90;;;7.30;;
9689;SDS011;4884;42.614;23.340;2023-01-24T14:27:48;7.33;;;6.57;;
9689;SDS011;4884;42.614;23.340;2023-01-24T14:36:24;8.30;;;6.43;;
9689;SDS011;4884;42.614;23.340;2023-01-24T14:41:46;9.27;;;7.03;;
9689;SDS011;4884;42.614;23.340;2023-01-24T14:46:54;9.90;;;7.07;;
9689;SDS011;4884;42.614;23.340;2023-01-24T14:49:29;7.90;;;6.93;;
9689;SDS011;4884;42.614;23.340;2023-01-24T14:52:03;7.63;;;6.07;;
9689;SDS011;4884;42.614;23.340;2023-01-24T14:54:45;7.87;;;5.77;;
9689;SDS011;4884;42.614;23.340;2023-01-24T14:57:21;9.47;;;5.93;;
9689;SDS011;4884;42.614;23.340;2023-01-24T15:02:38;7.57;;;5.73;;
9689;SDS011;4884;42.614;23.340;2023-01-24T15:05:21;8.20;;;5.50;;
9689;SDS011;4884;42.614;23.340;2023-01-24T15:07:48;8.33;;;5.17;;
9689;SDS011;4884;42.614;23.340;2023-01-24T15:10:14;8.50;;;6.57;;
9689;SDS011;4884;42.614;23.340;2023-01-24T15:12:39;9.03;;;6.37;;
9689;SDS011;4884;42.614;23.340;2023-01-24T15:15:05;7.53;;;5.20;;
9689;SDS011;4884;42.614;23.340;2023-01-24T15:17:31;7.60;;;5.83;;
9689;SDS011;4884;42.614;23.340;2023-01-24T15:20:07;7.53;;;6.13;;
9689;SDS011;4884;42.614;23.340;2023-01-24T15:22:36;9.10;;;6.93;;
9689;SDS011;4884;42.614;23.340;2023-01-24T15:25:03;7.37;;;6.07;;
9689;SDS011;4884;42.614;23.340;2023-01-24T15:38:01;9.03;;;6.93;;
9689;SDS011;4884;42.614;23.340;2023-01-24T15:40:26;12.23;;;8.13;;
9689;SDS011;4884;42.614;23.340;2023-01-24T15:42:52;17.17;;;11.43;;
9689;SDS011;4884;42.614;23.340;2023-01-24T15:45:37;21.87;;;15.33;;
9689;SDS011;4884;42.614;23.340;2023-01-24T15:50:48;18.63;;;13.10;;
9689;SDS011;4884;42.614;23.340;2023-01-24T15:53:34;19.70;;;16.57;;
9689;SDS011;4884;42.614;23.340;2023-01-24T15:56:21;24.50;;;18.47;;
9689;SDS011;4884;42.614;23.340;2023-01-24T15:58:47;21.97;;;17.80;;
9689;SDS011;4884;42.614;23.340;2023-01-24T16:01:13;19.13;;;12.03;;
9689;SDS011;4884;42.614;23.340;2023-01-24T16:03:38;17.93;;;13.93;;
9689;SDS011;4884;42.614;23.340;2023-01-24T16:06:04;15.60;;;11.83;;
9689;SDS011;4884;42.614;23.340;2023-01-24T16:08:29;22.17;;;15.93;;
9689;SDS011;4884;42.614;23.340;2023-01-24T16:10:55;17.90;;;15.27;;
9689;SDS011;4884;42.614;23.340;2023-01-24T16:13:36;16.13;;;13.23;;
9689;SDS011;4884;42.614;23.340;2023-01-24T16:16:06;15.20;;;13.60;;
9689;SDS011;4884;42.614;23.340;2023-01-24T16:18:33;22.47;;;13.20;;
9689;SDS011;4884;42.614;23.340;2023-01-24T16:20:59;17.83;;;12.17;;
9689;SDS011;4884;42.614;23.340;2023-01-24T16:23:24;22.23;;;15.87;;
9689;SDS011;4884;42.614;23.340;2023-01-24T16:25:51;19.43;;;13.00;;
9689;SDS011;4884;42.614;23.340;2023-01-24T16:28:19;19.50;;;13.47;;
9689;SDS011;4884;42.614;23.340;2023-01-24T16:30:47;18.67;;;12.57;;
9689;SDS011;4884;42.614;23.340;2023-01-24T16:33:14;20.53;;;16.27;;
9689;SDS011;4884;42.614;23.340;2023-01-24T16:35:40;21.40;;;15.93;;
9689;SDS011;4884;42.614;23.340;2023-01-24T16:38:05;63.83;;;43.27;;
9689;SDS011;4884;42.614;23.340;2023-01-24T16:40:32;34.23;;;21.93;;
9689;SDS011;4884;42.614;23.340;2023-01-24T16:42:57;31.20;;;20.63;;
9689;SDS011;4884;42.614;23.340;2023-01-24T16:45:27;28.63;;;17.07;;
9689;SDS011;4884;42.614;23.340;2023-01-24T16:47:53;26.13;;;18.20;;
9689;SDS011;4884;42.614;23.340;2023-01-24T16:50:18;23.13;;;16.07;;
9689;SDS011;4884;42.614;23.340;2023-01-24T16:52:44;24.57;;;18.27;;
9689;SDS011;4884;42.614;23.340;2023-01-24T16:55:10;28.10;;;20.13;;
9689;SDS011;4884;42.614;23.340;2023-01-24T16:57:35;27.00;;;19.10;;
9689;SDS011;4884;42.614;23.340;2023-01-24T17:00:01;28.63;;;21.00;;
9689;SDS011;4884;42.614;23.340;2023-01-24T17:02:31;36.47;;;25.47;;
9689;SDS011;4884;42.614;23.340;2023-01-24T17:04:56;31.67;;;22.53;;
9689;SDS011;4884;42.614;23.340;2023-01-24T17:07:22;35.30;;;23.17;;
9689;SDS011;4884;42.614;23.340;2023-01-24T17:09:47;32.43;;;23.03;;
9689;SDS011;4884;42.614;23.340;2023-01-24T17:12:13;31.63;;;21.07;;
9689;SDS011;4884;42.614;23.340;2023-01-24T17:14:38;37.27;;;25.20;;
9689;SDS011;4884;42.614;23.340;2023-01-24T17:17:05;33.90;;;21.77;;
9689;SDS011;4884;42.614;23.340;2023-01-24T17:19:30;21.10;;;15.70;;
9689;SDS011;4884;42.614;23.340;2023-01-24T17:21:58;27.67;;;19.70;;
9689;SDS011;4884;42.614;23.340;2023-01-24T17:24:23;34.20;;;21.20;;
9689;SDS011;4884;42.614;23.340;2023-01-24T17:26:49;21.93;;;16.33;;
9689;SDS011;4884;42.614;23.340;2023-01-24T17:29:14;25.07;;;16.23;;
9689;SDS011;4884;42.614;23.340;2023-01-24T17:31:40;24.10;;;15.87;;
9689;SDS011;4884;42.614;23.340;2023-01-24T17:34:05;23.37;;;15.50;;
9689;SDS011;4884;42.614;23.340;2023-01-24T17:36:30;25.63;;;16.60;;